createdAt,value
2019-02-08T00:02:18.418Z,100364.25
2019-02-08T00:04:49.559Z,100344.42
2019-02-08T00:07:21.901Z,100342.41
2019-02-08T00:09:52.979Z,100347.59
2019-02-08T00:12:25.058Z,100343.23
2019-02-08T00:14:56.210Z,100331.30
2019-02-08T00:17:28.142Z,100332.65
2019-02-08T00:19:59.492Z,100323.41
2019-02-08T00:22:30.789Z,100309.97
2019-02-08T00:25:02.641Z,100311.45
2019-02-08T00:27:33.901Z,100314.16
2019-02-08T00:30:09.031Z,100312.48
2019-02-08T00:32:40.344Z,100304.44
2019-02-08T00:35:11.513Z,100301.41
2019-02-08T00:37:43.045Z,100299.37
2019-02-08T00:40:14.849Z,100304.13
2019-02-08T00:42:45.918Z,100298.55
2019-02-08T00:45:17.706Z,100294.02
2019-02-08T00:47:48.850Z,100288.66
2019-02-08T00:50:21.746Z,100291.18
2019-02-08T00:52:53.019Z,100307.14
2019-02-08T00:55:24.169Z,100307.14
2019-02-08T00:57:55.441Z,100298.41
2019-02-08T01:00:27.070Z,100293.53
2019-02-08T01:03:00.785Z,100291.34
2019-02-08T01:05:32.130Z,100285.98
2019-02-08T01:08:04.302Z,100289.69
2019-02-08T01:10:35.558Z,100295.69
2019-02-08T01:13:06.945Z,100290.67
2019-02-08T01:15:38.995Z,100290.99
2019-02-08T01:18:10.177Z,100274.52
2019-02-08T01:20:41.485Z,100282.05
2019-02-08T01:23:13.012Z,100271.52
2019-02-08T01:25:44.399Z,100255.54
2019-02-08T01:28:15.478Z,100248.30
2019-02-08T01:30:46.876Z,100252.32
2019-02-08T01:33:18.298Z,100259.20
2019-02-08T01:35:49.469Z,100264.92
2019-02-08T01:38:22.323Z,100254.65
2019-02-08T01:40:54.239Z,100238.17
2019-02-08T01:43:25.397Z,100215.34
2019-02-08T01:45:56.832Z,100228.29
2019-02-08T01:48:28.027Z,100223.91
2019-02-08T01:50:59.180Z,100225.76
2019-02-08T01:53:30.327Z,100226.10
2019-02-08T01:56:01.495Z,100221.04
2019-02-08T01:58:32.779Z,100212.44
2019-02-08T02:01:03.933Z,100215.62
2019-02-08T02:03:35.017Z,100223.04
2019-02-08T02:06:06.901Z,100218.50
2019-02-08T02:08:38.144Z,100220.37
2019-02-08T02:11:09.326Z,100215.00
2019-02-08T02:13:40.391Z,100224.41
2019-02-08T02:16:12.915Z,100224.75
2019-02-08T02:18:44.046Z,100213.34
2019-02-08T02:21:15.154Z,100193.77
2019-02-08T02:23:46.316Z,100199.15
2019-02-08T02:26:17.862Z,100196.84
2019-02-08T02:28:48.943Z,100188.39
2019-02-08T02:31:20.011Z,100183.39
2019-02-08T02:33:51.167Z,100190.12
2019-02-08T02:36:22.811Z,100182.70
2019-02-08T02:38:53.860Z,100191.45
2019-02-08T02:41:25.731Z,100183.39
2019-02-08T02:43:56.863Z,100172.95
2019-02-08T02:46:28.076Z,100173.26
2019-02-08T02:48:59.253Z,100171.11
2019-02-08T02:51:30.419Z,100172.76
2019-02-08T02:54:04.953Z,100164.19
2019-02-08T02:56:34.450Z,100154.28
2019-02-08T02:59:06.215Z,100151.36
2019-02-08T03:01:37.397Z,100153.39
2019-02-08T03:04:08.735Z,100150.36
2019-02-08T03:06:39.889Z,100156.08
2019-02-08T03:09:11.190Z,100149.20
2019-02-08T03:11:43.440Z,100131.23
2019-02-08T03:14:14.679Z,100133.27
2019-02-08T03:16:45.875Z,100130.92
2019-02-08T03:19:17.029Z,100128.42
2019-02-08T03:21:48.197Z,100127.58
2019-02-08T03:24:19.277Z,100135.61
2019-02-08T03:26:50.445Z,100129.03
2019-02-08T03:29:23.845Z,100129.92
2019-02-08T03:31:55.615Z,100114.25
2019-02-08T03:34:26.784Z,100110.36
2019-02-08T03:36:58.528Z,100089.69
2019-02-08T03:39:29.757Z,100081.43
2019-02-08T03:42:00.853Z,100089.93
2019-02-08T03:44:32.876Z,100087.86
2019-02-08T03:47:04.027Z,100088.90
2019-02-08T03:49:35.126Z,100077.48
2019-02-08T03:52:06.279Z,100067.03
2019-02-08T03:54:37.352Z,100066.38
2019-02-08T03:57:08.525Z,100062.98
2019-02-08T03:59:39.724Z,100046.52
2019-02-08T04:02:10.902Z,100043.62
2019-02-08T04:04:42.628Z,100042.28
2019-02-08T04:07:14.276Z,100048.51
2019-02-08T04:09:45.422Z,100039.79
2019-02-08T04:12:16.602Z,100034.16
2019-02-08T04:14:47.769Z,100036.69
2019-02-08T04:17:19.066Z,100029.05
2019-02-08T04:19:50.259Z,100029.91
2019-02-08T04:22:21.319Z,100026.87
2019-02-08T04:24:52.446Z,100031.25
2019-02-08T04:27:24.270Z,100016.40
2019-02-08T04:29:55.417Z,100007.98
2019-02-08T04:32:27.280Z,100012.31
2019-02-08T04:34:58.413Z,99996.17
2019-02-08T04:37:29.517Z,100002.69
2019-02-08T04:40:00.672Z,99994.45
2019-02-08T04:42:33.770Z,99998.50
2019-02-08T04:45:05.804Z,99976.20
2019-02-08T04:47:36.994Z,99971.52
2019-02-08T04:50:09.800Z,99972.50
2019-02-08T04:52:41.268Z,99964.09
2019-02-08T04:55:13.023Z,99970.44
2019-02-08T04:57:44.194Z,99967.04
2019-02-08T05:00:32.978Z,99955.58
2019-02-08T05:03:04.216Z,99965.70
2019-02-08T05:05:35.857Z,99960.59
2019-02-08T05:08:07.305Z,99956.83
2019-02-08T05:10:38.605Z,99952.73
2019-02-08T05:13:09.757Z,99954.42
2019-02-08T05:15:40.910Z,99943.31
2019-02-08T05:18:12.555Z,99942.95
2019-02-08T05:20:43.847Z,99933.94
2019-02-08T05:23:15.154Z,99931.72
2019-02-08T05:25:46.345Z,99932.72
2019-02-08T05:28:17.540Z,99919.27
2019-02-08T05:30:48.805Z,99917.88
2019-02-08T05:33:19.997Z,99914.12
2019-02-08T05:35:51.075Z,99886.59
2019-02-08T05:38:22.904Z,99905.97
2019-02-08T05:41:00.218Z,99907.66
2019-02-08T05:43:31.334Z,99907.01
2019-02-08T05:46:03.262Z,99912.22
2019-02-08T05:48:34.385Z,99896.84
2019-02-08T05:51:05.581Z,99900.74
2019-02-08T05:53:36.851Z,99895.42
2019-02-08T05:56:07.984Z,99902.69
2019-02-08T05:58:39.233Z,99897.36
2019-02-08T06:01:10.374Z,99887.09
2019-02-08T06:03:41.560Z,99893.12
2019-02-08T06:06:12.813Z,99898.20
2019-02-08T06:08:44.113Z,99900.89
2019-02-08T06:11:15.496Z,99891.47
2019-02-08T06:13:46.996Z,99896.07
2019-02-08T06:16:18.273Z,99886.08
2019-02-08T06:18:49.462Z,99886.64
2019-02-08T06:21:20.759Z,99879.23
2019-02-08T06:23:52.782Z,99890.00
2019-02-08T06:26:24.526Z,99883.20
2019-02-08T06:28:56.696Z,99878.38
2019-02-08T06:31:28.403Z,99874.40
2019-02-08T06:33:59.577Z,99873.84
2019-02-08T06:36:30.850Z,99885.17
2019-02-08T06:39:04.813Z,99868.88
2019-02-08T06:41:36.188Z,99875.31
2019-02-08T06:44:07.491Z,99886.22
2019-02-08T06:46:38.877Z,99860.36
2019-02-08T06:49:10.171Z,99864.33
2019-02-08T06:51:41.328Z,99869.85
2019-02-08T06:54:12.766Z,99877.76
2019-02-08T06:57:06.742Z,99870.23
2019-02-08T07:00:09.313Z,99874.35
2019-02-08T07:02:58.029Z,99876.41
2019-02-08T07:05:51.065Z,99878.32
2019-02-08T07:08:34.697Z,99877.30
2019-02-08T07:11:34.172Z,99874.98
2019-02-08T07:14:31.035Z,99878.40
2019-02-08T07:17:27.906Z,99871.41
2019-02-08T07:20:13.396Z,99877.48
2019-02-08T07:23:02.340Z,99856.50
2019-02-08T07:25:42.182Z,99856.50
2019-02-08T07:28:20.773Z,99881.47
2019-02-08T07:31:13.254Z,99884.30
2019-02-08T07:34:09.028Z,99880.25
2019-02-08T07:37:17.321Z,99888.39
2019-02-08T07:40:14.078Z,99887.25
2019-02-08T07:42:56.565Z,99886.91
2019-02-08T07:45:40.688Z,99885.19
2019-02-08T07:48:29.744Z,99884.30
2019-02-08T07:51:26.455Z,99891.67
2019-02-08T07:54:22.575Z,99890.83
2019-02-08T07:57:11.095Z,99890.12
2019-02-08T08:00:00.489Z,99883.97
2019-02-08T08:02:40.932Z,99886.03
2019-02-08T08:05:30.496Z,99889.81
2019-02-08T08:08:14.638Z,99881.02
2019-02-08T08:11:01.704Z,99881.22
2019-02-08T08:13:57.968Z,99871.91
2019-02-08T08:16:51.349Z,99875.03
2019-02-08T08:19:34.248Z,99889.61
2019-02-08T08:22:21.368Z,99876.58
2019-02-08T08:25:13.118Z,99876.58
2019-02-08T08:28:03.620Z,99885.39
2019-02-08T08:30:39.645Z,99881.14
2019-02-08T08:33:23.916Z,99895.89
2019-02-08T08:36:54.782Z,99892.55
2019-02-08T08:40:02.634Z,99893.27
2019-02-08T08:43:31.458Z,99888.46
2019-02-08T08:46:39.547Z,99888.83
2019-02-08T08:49:38.378Z,99896.14
2019-02-08T08:52:22.644Z,99900.66
2019-02-08T08:55:27.259Z,99899.75
2019-02-08T08:58:17.702Z,99894.41
2019-02-08T09:01:39.109Z,99896.75
2019-02-08T09:05:03.343Z,99908.68
2019-02-08T09:08:24.452Z,99911.66
2019-02-08T09:11:29.627Z,99909.55
2019-02-08T09:14:52.683Z,99907.21
2019-02-08T09:18:09.530Z,99929.41
2019-02-08T09:21:12.255Z,99923.83
2019-02-08T09:24:06.203Z,99934.47
2019-02-08T09:27:24.914Z,99929.70
2019-02-08T09:30:23.054Z,99921.31
2019-02-08T09:33:30.032Z,99927.24
2019-02-08T09:36:47.520Z,99933.37
2019-02-08T09:40:05.924Z,99926.63
2019-02-08T09:43:13.260Z,99922.09
2019-02-08T09:46:11.800Z,99929.74
2019-02-08T09:49:39.458Z,99936.28
2019-02-08T09:52:51.959Z,99936.07
2019-02-08T09:55:57.665Z,99933.45
2019-02-08T09:59:03.154Z,99932.44
2019-02-08T10:02:20.342Z,99934.66
2019-02-08T10:05:20.911Z,99952.20
2019-02-08T10:08:27.461Z,99942.06
2019-02-08T10:11:55.591Z,99951.23
2019-02-08T10:15:07.595Z,99952.02
2019-02-08T10:18:13.943Z,99948.02
2019-02-08T10:21:34.251Z,99969.02
2019-02-08T10:24:41.744Z,99957.98
2019-02-08T10:27:53.840Z,99957.78
2019-02-08T10:31:11.055Z,99967.86
2019-02-08T10:34:42.070Z,99963.48
2019-02-08T10:37:49.046Z,99971.91
2019-02-08T10:41:03.634Z,99983.47
2019-02-08T10:44:24.603Z,99982.30
2019-02-08T10:47:31.932Z,99981.05
2019-02-08T10:50:53.416Z,99989.14
2019-02-08T10:54:01.450Z,99992.56
2019-02-08T10:57:18.787Z,100012.12
2019-02-08T11:00:34.534Z,100003.10
2019-02-08T11:03:50.438Z,100004.77
2019-02-08T11:07:15.677Z,100016.14
2019-02-08T11:10:20.847Z,100010.49
2019-02-08T11:13:28.143Z,100019.41
2019-02-08T11:16:45.509Z,100016.40
2019-02-08T11:19:22.316Z,100019.03
2019-02-08T11:21:54.612Z,100022.11
2019-02-08T11:24:26.662Z,100019.16
2019-02-08T11:27:00.064Z,100021.61
2019-02-08T11:29:31.285Z,100022.70
2019-02-08T11:32:02.860Z,100030.20
2019-02-08T11:34:34.025Z,100025.52
2019-02-08T11:37:05.631Z,100033.75
2019-02-08T11:39:37.193Z,100039.22
2019-02-08T11:42:08.335Z,100033.02
2019-02-08T11:44:39.511Z,100031.13
2019-02-08T11:47:10.722Z,100032.22
2019-02-08T11:49:42.170Z,100033.75
2019-02-08T11:52:13.888Z,100033.50
2019-02-08T11:54:46.226Z,100047.96
2019-02-08T11:57:17.450Z,100035.10
2019-02-08T11:59:48.766Z,100045.01
2019-02-08T12:02:19.946Z,100048.09
2019-02-08T12:04:51.169Z,100039.98
2019-02-08T12:07:22.795Z,100045.80
2019-02-08T12:09:54.436Z,100045.20
2019-02-08T12:12:25.566Z,100043.91
2019-02-08T12:14:56.882Z,100049.81
2019-02-08T12:17:28.023Z,100051.04
2019-02-08T12:19:59.110Z,100058.88
2019-02-08T12:22:30.236Z,100051.04
2019-02-08T12:25:01.459Z,100057.10
2019-02-08T12:27:34.171Z,100061.98
2019-02-08T12:30:09.230Z,100061.45
2019-02-08T12:32:40.374Z,100052.13
2019-02-08T12:35:11.558Z,100049.10
2019-02-08T12:37:43.169Z,100048.00
2019-02-08T12:40:14.343Z,100051.42
2019-02-08T12:42:45.476Z,100058.05
2019-02-08T12:45:17.274Z,100064.02
2019-02-08T12:47:49.709Z,100067.11
2019-02-08T12:50:21.061Z,100066.42
2019-02-08T12:52:52.503Z,100064.16
2019-02-08T12:55:25.601Z,100072.71
2019-02-08T12:57:56.918Z,100070.27
2019-02-08T13:00:28.488Z,100068.45
2019-02-08T13:02:59.651Z,100064.48
2019-02-08T13:05:30.948Z,100068.84
2019-02-08T13:08:02.892Z,100080.72
2019-02-08T13:10:34.092Z,100078.48
2019-02-08T13:13:05.260Z,100079.20
2019-02-08T13:15:36.478Z,100086.63
2019-02-08T13:18:07.691Z,100072.62
2019-02-08T13:20:38.903Z,100072.62
2019-02-08T13:23:10.076Z,100085.11
2019-02-08T13:25:41.267Z,100090.17
2019-02-08T13:28:12.855Z,100090.52
2019-02-08T13:30:43.999Z,100090.81
2019-02-08T13:33:16.556Z,100096.16
2019-02-08T13:35:48.259Z,100092.70
2019-02-08T13:38:19.440Z,100099.20
2019-02-08T13:40:50.760Z,100119.34
2019-02-08T13:43:22.772Z,100104.08
2019-02-08T13:45:54.104Z,100102.98
2019-02-08T13:48:25.298Z,100112.20
2019-02-08T13:50:56.407Z,100114.80
2019-02-08T13:53:28.232Z,100120.00
2019-02-08T13:55:59.659Z,100118.24
2019-02-08T13:58:30.930Z,100123.22
2019-02-08T14:01:05.854Z,100123.83
2019-02-08T14:03:37.003Z,100132.52
2019-02-08T14:06:08.735Z,100137.02
2019-02-08T14:08:39.811Z,100153.73
2019-02-08T14:11:10.997Z,100155.32
2019-02-08T14:13:42.898Z,100166.38
2019-02-08T14:16:14.111Z,100173.13
2019-02-08T14:18:45.199Z,100159.70
2019-02-08T14:21:16.750Z,100178.32
2019-02-08T14:23:49.107Z,100179.94
2019-02-08T14:26:20.337Z,100169.22
2019-02-08T14:28:51.520Z,100179.06
2019-02-08T14:31:22.798Z,100192.61
2019-02-08T14:33:54.026Z,100196.95
2019-02-08T14:36:25.218Z,100188.87
2019-02-08T14:38:56.399Z,100210.88
2019-02-08T14:41:27.691Z,100199.38
2019-02-08T14:43:58.900Z,100200.38
2019-02-08T14:46:30.139Z,100213.66
2019-02-08T14:49:01.334Z,100217.42
2019-02-08T14:51:32.713Z,100219.44
2019-02-08T14:54:06.107Z,100226.86
2019-02-08T14:56:38.149Z,100226.91
2019-02-08T14:59:10.480Z,100218.48
2019-02-08T15:01:42.890Z,100228.62
2019-02-08T15:04:14.458Z,100224.23
2019-02-08T15:06:46.620Z,100227.50
2019-02-08T15:09:20.185Z,100240.52
2019-02-08T15:11:51.392Z,100235.13
2019-02-08T15:14:22.647Z,100243.11
2019-02-08T15:16:54.108Z,100249.54
2019-02-08T15:19:25.554Z,100257.56
2019-02-08T15:21:56.980Z,100259.05
2019-02-08T15:24:28.159Z,100260.59
2019-02-08T15:26:59.479Z,100261.11
2019-02-08T15:29:30.710Z,100256.06
2019-02-08T15:32:01.892Z,100264.20
2019-02-08T15:34:33.176Z,100266.97
2019-02-08T15:37:05.639Z,100271.31
2019-02-08T15:39:36.937Z,100275.13
2019-02-08T15:42:12.766Z,100277.35
2019-02-08T15:44:47.225Z,100271.30
2019-02-08T15:47:18.472Z,100269.95
2019-02-08T15:49:49.815Z,100282.08
2019-02-08T15:52:21.098Z,100280.03
2019-02-08T15:54:52.765Z,100286.05
2019-02-08T15:57:32.090Z,100285.38
2019-02-08T15:59:57.486Z,100293.61
2019-02-08T16:02:34.531Z,100285.91
2019-02-08T16:05:07.766Z,100291.39
2019-02-08T16:07:38.932Z,100305.63
2019-02-08T16:10:10.261Z,100293.94
2019-02-08T16:12:41.548Z,100301.02
2019-02-08T16:15:16.256Z,100305.21
2019-02-08T16:17:47.563Z,100316.59
2019-02-08T16:20:21.045Z,100306.70
2019-02-08T16:22:53.981Z,100303.16
2019-02-08T16:25:26.846Z,100309.86
2019-02-08T16:27:58.443Z,100309.42
2019-02-08T16:30:30.769Z,100314.81
2019-02-08T16:33:02.725Z,100320.16
2019-02-08T16:35:33.966Z,100320.86
2019-02-08T16:38:05.816Z,100318.64
2019-02-08T16:40:36.992Z,100323.75
2019-02-08T16:43:08.235Z,100319.51
2019-02-08T16:45:39.427Z,100318.91
2019-02-08T16:48:10.826Z,100334.05
2019-02-08T16:50:43.445Z,100339.78
2019-02-08T16:53:17.701Z,100334.98
2019-02-08T16:55:48.963Z,100340.38
2019-02-08T16:58:20.420Z,100337.44
2019-02-08T17:00:51.609Z,100350.80
2019-02-08T17:03:23.059Z,100357.28
2019-02-08T17:05:54.309Z,100350.16
2019-02-08T17:08:25.904Z,100356.95
2019-02-08T17:10:57.197Z,100350.52
2019-02-08T17:13:28.432Z,100364.00
2019-02-08T17:15:59.734Z,100367.05
2019-02-08T17:18:30.834Z,100375.05
2019-02-08T17:21:05.730Z,100369.32
2019-02-08T17:23:37.096Z,100373.44
2019-02-08T17:26:12.873Z,100380.47
2019-02-08T17:28:44.204Z,100382.32
2019-02-08T17:31:15.540Z,100386.41
2019-02-08T17:33:46.853Z,100392.66
2019-02-08T17:36:18.713Z,100385.86
2019-02-08T17:38:49.918Z,100385.61
2019-02-08T17:41:22.371Z,100387.27
2019-02-08T17:43:53.593Z,100383.61
2019-02-08T17:46:24.802Z,100378.52
2019-02-08T17:48:56.040Z,100396.70
2019-02-08T17:51:27.212Z,100397.70
2019-02-08T17:53:58.472Z,100409.81
2019-02-08T17:56:29.663Z,100403.14
2019-02-08T17:59:00.823Z,100403.79
2019-02-08T18:01:32.768Z,100401.09
2019-02-08T18:04:04.060Z,100410.88
2019-02-08T18:06:35.778Z,100413.64
2019-02-08T18:09:09.268Z,100417.63
2019-02-08T18:11:42.602Z,100420.27
2019-02-08T18:14:15.348Z,100420.56
2019-02-08T18:16:46.728Z,100430.70
2019-02-08T18:19:17.949Z,100423.91
2019-02-08T18:21:52.137Z,100435.39
2019-02-08T18:24:24.410Z,100428.25
2019-02-08T18:26:55.606Z,100437.37
2019-02-08T18:29:26.983Z,100430.30
2019-02-08T18:31:58.281Z,100437.31
2019-02-08T18:34:29.574Z,100434.63
2019-02-08T18:37:00.949Z,100439.38
2019-02-08T18:39:32.944Z,100441.03
2019-02-08T18:42:04.458Z,100443.73
2019-02-08T18:44:35.724Z,100442.37
2019-02-08T18:47:06.971Z,100453.16
2019-02-08T18:49:38.262Z,100452.05
2019-02-08T18:52:09.453Z,100455.50
2019-02-08T18:54:40.842Z,100459.60
2019-02-08T18:57:14.811Z,100466.28
2019-02-08T18:59:47.097Z,100468.94
2019-02-08T19:02:18.355Z,100468.69
2019-02-08T19:04:49.440Z,100466.28
2019-02-08T19:07:20.934Z,100472.27
2019-02-08T19:09:52.849Z,100476.97
2019-02-08T19:12:24.552Z,100478.22
2019-02-08T19:14:55.822Z,100480.81
2019-02-08T19:17:27.017Z,100484.66
2019-02-08T19:19:58.234Z,100478.36
2019-02-08T19:22:29.566Z,100480.16
2019-02-08T19:25:00.710Z,100480.38
2019-02-08T19:27:31.861Z,100472.28
2019-02-08T19:30:02.971Z,100473.69
2019-02-08T19:32:34.204Z,100474.98
2019-02-08T19:35:06.899Z,100474.84
2019-02-08T19:37:38.352Z,100465.67
2019-02-08T19:40:11.936Z,100468.38
2019-02-08T19:42:45.462Z,100476.48
2019-02-08T19:45:19.940Z,100472.73
2019-02-08T19:47:51.101Z,100480.01
2019-02-08T19:50:30.623Z,100480.53
2019-02-08T19:53:01.861Z,100476.63
2019-02-08T19:55:33.009Z,100474.69
2019-02-08T19:58:04.318Z,100489.28
2019-02-08T20:00:35.757Z,100471.39
2019-02-08T20:03:08.613Z,100471.39
2019-02-08T20:05:39.909Z,100475.03
2019-02-08T20:08:12.737Z,100479.52
2019-02-08T20:10:45.733Z,100480.01
2019-02-08T20:13:18.256Z,100479.56
2019-02-08T20:15:49.349Z,100477.84
2019-02-08T20:18:20.653Z,100488.07
2019-02-08T20:20:52.211Z,100479.70
2019-02-08T20:23:24.147Z,100474.73
2019-02-08T20:25:55.279Z,100481.98
2019-02-08T20:28:26.884Z,100484.42
2019-02-08T20:30:58.305Z,100481.48
2019-02-08T20:33:29.463Z,100481.05
2019-02-08T20:36:00.680Z,100494.37
2019-02-08T20:38:31.908Z,100491.98
2019-02-08T20:41:03.034Z,100489.06
2019-02-08T20:43:34.167Z,100484.73
2019-02-08T20:46:05.657Z,100482.28
2019-02-08T20:48:36.817Z,100482.72
2019-02-08T20:51:11.449Z,100480.48
2019-02-08T20:53:42.937Z,100477.19
2019-02-08T20:56:14.101Z,100477.19
2019-02-08T20:58:50.143Z,100476.53
2019-02-08T21:01:18.173Z,100476.38
2019-02-08T21:03:49.775Z,100479.92
2019-02-08T21:06:22.631Z,100489.00
2019-02-08T21:08:54.310Z,100486.81
2019-02-08T21:11:25.801Z,100485.58
2019-02-08T21:13:57.031Z,100492.24
2019-02-08T21:16:28.655Z,100489.55
2019-02-08T21:18:59.847Z,100483.20
2019-02-08T21:21:31.409Z,100491.09
2019-02-08T21:24:03.079Z,100492.23
2019-02-08T21:26:34.232Z,100495.24
2019-02-08T21:29:05.608Z,100498.63
2019-02-08T21:31:37.440Z,100490.89
2019-02-08T21:34:08.586Z,100486.50
2019-02-08T21:36:39.779Z,100482.84
2019-02-08T21:39:10.877Z,100484.20
2019-02-08T21:41:42.580Z,100481.45
2019-02-08T21:44:16.854Z,100480.50
2019-02-08T21:46:48.479Z,100481.00
2019-02-08T21:49:19.946Z,100469.06
2019-02-08T21:51:51.019Z,100468.38
2019-02-08T21:54:22.653Z,100460.36
2019-02-08T21:56:55.621Z,100461.33
2019-02-08T21:59:27.130Z,100460.98
2019-02-08T22:01:58.180Z,100457.24
2019-02-08T22:04:29.382Z,100462.37
2019-02-08T22:07:00.467Z,100455.28
2019-02-08T22:09:31.621Z,100458.33
2019-02-08T22:12:02.739Z,100449.52
2019-02-08T22:14:33.891Z,100450.20
2019-02-08T22:17:04.968Z,100443.16
2019-02-08T22:19:36.119Z,100442.89
2019-02-08T22:22:08.261Z,100436.11
2019-02-08T22:24:39.646Z,100420.61
2019-02-08T22:27:10.871Z,100424.60
2019-02-08T22:29:42.638Z,100412.98
2019-02-08T22:32:13.960Z,100424.11
2019-02-08T22:34:45.045Z,100418.02
2019-02-08T22:37:16.331Z,100417.18
2019-02-08T22:39:48.253Z,100408.28
2019-02-08T22:42:19.495Z,100402.20
2019-02-08T22:44:50.638Z,100409.09
2019-02-08T22:47:22.717Z,100417.22
2019-02-08T22:49:53.844Z,100390.92
2019-02-08T22:52:25.553Z,100392.92
2019-02-08T22:54:56.695Z,100393.88
2019-02-08T22:57:27.823Z,100393.33
2019-02-08T22:59:58.908Z,100387.53
2019-02-08T23:02:29.969Z,100385.38
2019-02-08T23:05:01.217Z,100390.13
2019-02-08T23:07:32.595Z,100384.09
2019-02-08T23:10:04.363Z,100380.19
2019-02-08T23:12:35.516Z,100379.39
2019-02-08T23:15:07.773Z,100375.00
2019-02-08T23:17:39.203Z,100368.56
2019-02-08T23:20:10.542Z,100372.00
2019-02-08T23:22:41.775Z,100370.70
2019-02-08T23:25:13.027Z,100368.98
2019-02-08T23:27:44.182Z,100367.27
2019-02-08T23:30:15.926Z,100362.52
2019-02-08T23:32:47.189Z,100361.58
2019-02-08T23:35:18.386Z,100350.80
2019-02-08T23:37:49.657Z,100343.16
2019-02-08T23:40:21.038Z,100350.50
2019-02-08T23:42:52.613Z,100342.02
2019-02-08T23:45:24.266Z,100335.42
2019-02-08T23:48:00.722Z,100344.31
2019-02-08T23:50:31.951Z,100332.23
2019-02-08T23:53:03.150Z,100330.53
2019-02-08T23:55:34.328Z,100334.27
2019-02-08T23:58:07.078Z,100319.95
